createdAt,value
2023-03-16T00:02:18.818Z,1.45
2023-03-16T00:04:47.715Z,1.50
2023-03-16T00:07:16.944Z,1.80
2023-03-16T00:09:44.643Z,1.67
2023-03-16T00:12:16.893Z,1.40
2023-03-16T00:14:50.260Z,4.05
2023-03-16T00:17:20.701Z,1.85
2023-03-16T00:19:55.222Z,1.67
2023-03-16T00:22:29.443Z,2.70
2023-03-16T00:24:58.076Z,1.90
2023-03-16T00:27:27.024Z,1.73
2023-03-16T00:29:57.967Z,2.47
2023-03-16T00:32:29.108Z,1.75
2023-03-16T00:34:57.375Z,1.02
2023-03-16T00:37:26.879Z,3.28
2023-03-16T00:39:56.526Z,2.10
2023-03-16T00:42:27.828Z,1.88
2023-03-16T00:44:57.315Z,1.85
2023-03-16T00:47:31.328Z,2.65
2023-03-16T00:50:01.213Z,2.90
2023-03-16T00:52:30.274Z,1.60
2023-03-16T00:54:58.710Z,3.22
2023-03-16T00:57:30.308Z,1.60
2023-03-16T00:59:59.623Z,1.38
2023-03-16T01:02:28.398Z,2.33
2023-03-16T01:04:56.086Z,1.75
2023-03-16T01:07:24.734Z,1.60
2023-03-16T01:09:52.514Z,2.25
2023-03-16T01:12:20.637Z,1.33
2023-03-16T01:14:48.806Z,1.63
2023-03-16T01:17:18.854Z,1.50
2023-03-16T01:19:47.169Z,3.72
2023-03-16T01:22:16.548Z,1.63
2023-03-16T01:24:45.950Z,1.65
2023-03-16T01:27:14.977Z,2.03
2023-03-16T01:29:46.638Z,1.98
2023-03-16T01:32:14.291Z,1.60
2023-03-16T01:34:43.607Z,2.55
2023-03-16T01:37:13.930Z,2.90
2023-03-16T01:39:49.999Z,2.05
2023-03-16T01:42:18.774Z,4.93
2023-03-16T01:44:56.804Z,3.08
2023-03-16T01:47:30.012Z,1.77
2023-03-16T01:49:58.370Z,2.05
2023-03-16T01:52:35.888Z,1.40
2023-03-16T01:55:09.568Z,1.85
2023-03-16T01:57:42.797Z,1.40
2023-03-16T02:00:20.926Z,2.05
2023-03-16T02:03:15.194Z,1.63
2023-03-16T02:05:59.778Z,1.50
2023-03-16T02:08:29.314Z,1.80
2023-03-16T02:10:58.499Z,1.52
2023-03-16T02:13:36.933Z,2.00
2023-03-16T02:16:08.698Z,1.27
2023-03-16T02:18:37.284Z,1.75
2023-03-16T02:21:12.618Z,1.35
2023-03-16T02:23:43.702Z,3.53
2023-03-16T02:26:29.496Z,1.60
2023-03-16T02:29:00.372Z,1.70
2023-03-16T02:31:30.681Z,3.42
2023-03-16T02:33:59.697Z,1.30
2023-03-16T02:36:29.628Z,1.58
2023-03-16T02:38:57.683Z,1.38
2023-03-16T02:41:25.606Z,2.58
2023-03-16T02:44:04.835Z,2.60
2023-03-16T02:46:37.665Z,2.75
2023-03-16T02:49:26.168Z,2.78
2023-03-16T02:51:54.664Z,1.45
2023-03-16T02:54:23.509Z,0.90
2023-03-16T02:56:53.013Z,0.80
2023-03-16T02:59:22.161Z,1.88
2023-03-16T03:01:51.572Z,1.80
2023-03-16T03:04:19.267Z,1.33
2023-03-16T03:06:50.652Z,1.88
2023-03-16T03:09:19.663Z,0.80
2023-03-16T03:11:50.732Z,1.00
2023-03-16T03:14:18.813Z,1.30
2023-03-16T03:16:49.575Z,0.73
2023-03-16T03:19:17.859Z,1.10
2023-03-16T03:21:45.561Z,3.42
2023-03-16T03:24:13.289Z,1.23
2023-03-16T03:26:41.911Z,1.50
2023-03-16T03:29:17.336Z,1.23
2023-03-16T03:31:45.540Z,1.25
2023-03-16T03:34:15.643Z,1.10
2023-03-16T03:36:43.392Z,1.30
2023-03-16T03:39:11.103Z,1.30
2023-03-16T03:41:39.560Z,1.65
2023-03-16T03:44:08.372Z,1.38
2023-03-16T03:46:38.229Z,1.13
2023-03-16T03:49:06.644Z,2.20
2023-03-16T03:51:36.504Z,1.05
2023-03-16T03:54:08.999Z,0.93
2023-03-16T03:56:47.918Z,1.50
2023-03-16T03:59:19.080Z,1.30
2023-03-16T04:02:16.666Z,2.00
2023-03-16T04:04:55.536Z,1.65
2023-03-16T04:07:23.801Z,3.00
2023-03-16T04:09:56.232Z,3.22
2023-03-16T04:12:33.524Z,4.43
2023-03-16T04:15:01.915Z,2.30
2023-03-16T04:17:35.518Z,2.45
2023-03-16T04:20:13.323Z,1.38
2023-03-16T04:22:43.498Z,2.85
2023-03-16T04:25:12.956Z,1.48
2023-03-16T04:27:42.067Z,1.30
2023-03-16T04:30:13.694Z,2.50
2023-03-16T04:32:46.772Z,3.55
2023-03-16T04:35:19.735Z,1.48
2023-03-16T04:37:55.122Z,1.88
2023-03-16T04:40:30.484Z,1.55
2023-03-16T04:43:07.994Z,3.65
2023-03-16T04:45:36.783Z,7.35
2023-03-16T04:48:04.954Z,4.28
2023-03-16T04:50:32.706Z,1.98
2023-03-16T04:53:01.596Z,3.10
2023-03-16T04:55:31.444Z,4.35
2023-03-16T04:57:59.787Z,3.65
2023-03-16T05:00:32.132Z,8.18
2023-03-16T05:03:19.639Z,10.75
2023-03-16T05:05:48.640Z,4.78
2023-03-16T05:08:17.995Z,4.07
2023-03-16T05:10:50.028Z,6.65
2023-03-16T05:13:19.629Z,5.43
2023-03-16T05:15:50.019Z,3.97
2023-03-16T05:18:23.235Z,2.88
2023-03-16T05:20:53.563Z,2.67
2023-03-16T05:23:22.909Z,2.13
2023-03-16T05:25:59.926Z,3.03
2023-03-16T05:28:30.150Z,2.40
2023-03-16T05:31:04.017Z,2.97
2023-03-16T05:33:38.959Z,3.13
2023-03-16T05:36:13.763Z,1.95
2023-03-16T05:38:45.696Z,2.80
2023-03-16T05:41:21.663Z,4.57
2023-03-16T05:44:01.063Z,5.93
2023-03-16T05:46:38.724Z,3.20
2023-03-16T05:49:07.967Z,5.43
2023-03-16T05:51:35.646Z,3.55
2023-03-16T05:54:06.723Z,2.83
2023-03-16T05:56:43.871Z,3.53
2023-03-16T05:59:11.849Z,2.35
2023-03-16T06:01:40.892Z,3.90
2023-03-16T06:04:09.173Z,3.28
2023-03-16T06:06:40.988Z,3.53
2023-03-16T06:09:17.702Z,6.53
2023-03-16T06:11:45.595Z,4.47
2023-03-16T06:14:15.965Z,5.25
2023-03-16T06:16:45.174Z,4.63
2023-03-16T06:19:14.743Z,2.70
2023-03-16T06:21:43.139Z,3.05
2023-03-16T06:24:13.523Z,2.92
2023-03-16T06:26:41.706Z,3.88
2023-03-16T06:29:13.034Z,4.32
2023-03-16T06:31:41.952Z,5.13
2023-03-16T06:34:11.778Z,4.05
2023-03-16T06:36:40.543Z,4.85
2023-03-16T06:39:14.431Z,3.90
2023-03-16T06:41:46.382Z,4.03
2023-03-16T06:44:16.854Z,3.85
2023-03-16T06:46:55.038Z,3.25
2023-03-16T06:49:23.653Z,2.67
2023-03-16T06:51:51.880Z,4.50
2023-03-16T06:54:21.438Z,6.95
2023-03-16T06:56:49.656Z,3.97
2023-03-16T06:59:17.711Z,2.15
2023-03-16T07:01:45.984Z,1.92
2023-03-16T07:04:14.178Z,2.25
2023-03-16T07:06:43.105Z,4.07
2023-03-16T07:09:12.632Z,3.20
2023-03-16T07:11:40.560Z,2.30
2023-03-16T07:14:08.897Z,4.30
2023-03-16T07:16:37.314Z,5.97
2023-03-16T07:19:07.757Z,5.45
2023-03-16T07:21:39.276Z,5.07
2023-03-16T07:24:10.847Z,9.60
2023-03-16T07:26:39.299Z,5.95
2023-03-16T07:29:07.904Z,6.93
2023-03-16T07:31:36.296Z,8.15
2023-03-16T07:34:09.430Z,5.05
2023-03-16T07:36:45.584Z,3.55
2023-03-16T07:39:14.458Z,3.00
2023-03-16T07:41:44.041Z,3.20
2023-03-16T07:44:17.710Z,3.03
2023-03-16T07:46:49.960Z,2.42
2023-03-16T07:49:18.153Z,2.60
2023-03-16T07:51:48.005Z,2.78
2023-03-16T07:54:18.385Z,3.35
2023-03-16T07:56:49.562Z,2.30
2023-03-16T07:59:30.338Z,2.10
2023-03-16T08:01:58.676Z,7.57
2023-03-16T08:04:26.454Z,6.32
2023-03-16T08:07:00.342Z,4.18
2023-03-16T08:09:37.976Z,5.40
2023-03-16T08:12:11.348Z,4.55
2023-03-16T08:14:39.744Z,4.55
2023-03-16T08:17:15.846Z,4.85
2023-03-16T08:19:46.234Z,14.55
2023-03-16T08:22:14.973Z,5.75
2023-03-16T08:24:46.292Z,3.65
2023-03-16T08:27:16.289Z,5.28
2023-03-16T08:29:53.661Z,3.00
2023-03-16T08:32:25.213Z,2.90
2023-03-16T08:34:53.940Z,3.55
2023-03-16T08:37:24.199Z,3.17
2023-03-16T08:39:54.692Z,2.58
2023-03-16T08:42:23.779Z,2.05
2023-03-16T08:45:00.389Z,1.70
2023-03-16T08:47:31.119Z,2.22
2023-03-16T08:50:00.371Z,3.30
2023-03-16T08:52:28.744Z,2.50
2023-03-16T08:55:03.529Z,1.67
2023-03-16T08:57:33.500Z,2.03
2023-03-16T09:00:01.593Z,1.50
2023-03-16T09:02:30.018Z,1.30
2023-03-16T09:04:57.631Z,1.42
2023-03-16T09:07:26.256Z,1.38
2023-03-16T09:09:54.856Z,1.25
2023-03-16T09:12:23.550Z,1.38
2023-03-16T09:14:51.717Z,1.27
2023-03-16T09:17:20.968Z,1.48
2023-03-16T09:19:52.392Z,1.42
2023-03-16T09:22:22.535Z,1.47
2023-03-16T09:24:51.442Z,1.30
2023-03-16T09:27:20.878Z,1.13
2023-03-16T09:30:01.961Z,1.08
2023-03-16T09:32:30.741Z,1.17
2023-03-16T09:35:02.457Z,1.35
2023-03-16T09:37:44.786Z,1.30
2023-03-16T09:40:25.840Z,1.20
2023-03-16T09:43:12.373Z,1.67
2023-03-16T09:45:59.980Z,1.52
2023-03-16T09:48:34.222Z,1.30
2023-03-16T09:51:37.223Z,1.23
2023-03-16T09:54:33.339Z,1.50
2023-03-16T09:57:05.533Z,1.63
2023-03-16T09:59:33.770Z,1.55
2023-03-16T10:02:49.988Z,1.40
2023-03-16T10:05:23.100Z,1.83
2023-03-16T10:07:54.051Z,1.60
2023-03-16T10:10:47.234Z,1.95
2023-03-16T10:13:57.174Z,2.97
2023-03-16T10:16:35.758Z,1.70
2023-03-16T10:19:15.788Z,1.92
2023-03-16T10:21:45.317Z,1.80
2023-03-16T10:24:52.043Z,1.75
2023-03-16T10:27:28.950Z,1.33
2023-03-16T10:29:58.213Z,1.80
2023-03-16T10:32:29.530Z,1.60
2023-03-16T10:35:12.184Z,1.58
2023-03-16T10:37:40.937Z,1.10
2023-03-16T10:40:12.416Z,1.55
2023-03-16T10:42:40.602Z,1.58
2023-03-16T10:45:34.719Z,1.83
2023-03-16T10:48:17.175Z,3.03
2023-03-16T10:50:52.160Z,1.90
2023-03-16T10:53:42.786Z,1.65
2023-03-16T10:56:20.579Z,1.08
2023-03-16T10:58:48.575Z,1.08
2023-03-16T11:01:24.308Z,1.80
2023-03-16T11:03:55.772Z,2.08
2023-03-16T11:06:33.117Z,1.20
2023-03-16T11:09:12.959Z,1.20
2023-03-16T11:11:48.615Z,1.65
2023-03-16T11:14:22.449Z,2.00
2023-03-16T11:16:53.121Z,1.92
2023-03-16T11:19:27.342Z,1.83
2023-03-16T11:22:03.938Z,1.75
2023-03-16T11:24:46.740Z,1.63
2023-03-16T11:27:35.252Z,1.60
2023-03-16T11:30:15.217Z,1.83
2023-03-16T11:32:51.259Z,1.77
2023-03-16T11:35:41.948Z,1.92
2023-03-16T11:38:33.086Z,1.60
2023-03-16T11:41:06.060Z,1.02
2023-03-16T11:43:46.355Z,2.20
2023-03-16T11:46:22.889Z,1.67
2023-03-16T11:49:00.098Z,1.25
2023-03-16T11:51:58.362Z,2.17
2023-03-16T11:55:04.591Z,1.58
2023-03-16T11:57:55.588Z,1.30
2023-03-16T12:00:33.325Z,1.35
2023-03-16T12:03:26.024Z,1.60
2023-03-16T12:06:00.790Z,1.75
2023-03-16T12:08:32.696Z,1.42
2023-03-16T12:11:07.905Z,1.40
2023-03-16T12:14:01.589Z,1.70
2023-03-16T12:16:55.964Z,1.50
2023-03-16T12:19:38.641Z,1.65
2023-03-16T12:22:20.084Z,1.90
2023-03-16T12:24:48.325Z,1.50
2023-03-16T12:27:24.084Z,1.40
2023-03-16T12:30:01.914Z,1.98
2023-03-16T12:33:10.011Z,1.65
2023-03-16T12:35:49.752Z,1.35
2023-03-16T12:38:41.367Z,1.52
2023-03-16T12:41:18.012Z,1.40
2023-03-16T12:44:31.562Z,1.73
2023-03-16T12:47:09.080Z,1.70
2023-03-16T12:49:38.541Z,1.77
2023-03-16T12:52:10.808Z,1.35
2023-03-16T12:55:14.669Z,2.08
2023-03-16T12:57:45.502Z,1.63
2023-03-16T13:00:15.034Z,1.27
2023-03-16T13:02:57.326Z,1.33
2023-03-16T13:05:32.308Z,1.70
2023-03-16T13:08:13.795Z,1.40
2023-03-16T13:10:43.236Z,1.95
2023-03-16T13:13:15.293Z,2.13
2023-03-16T13:15:47.712Z,2.38
2023-03-16T13:18:15.530Z,1.75
2023-03-16T13:20:56.494Z,1.65
2023-03-16T13:23:46.588Z,2.10
2023-03-16T13:26:24.177Z,2.05
2023-03-16T13:28:54.511Z,1.92
2023-03-16T13:31:42.881Z,1.58
2023-03-16T13:34:29.922Z,1.92
2023-03-16T13:36:59.742Z,1.60
2023-03-16T13:39:30.604Z,1.83
2023-03-16T13:42:25.305Z,1.70
2023-03-16T13:44:54.974Z,2.08
2023-03-16T13:47:26.591Z,1.80
2023-03-16T13:50:00.316Z,2.25
2023-03-16T13:52:33.362Z,1.38
2023-03-16T13:55:07.943Z,1.67
2023-03-16T13:57:38.413Z,1.60
2023-03-16T14:00:25.536Z,1.88
2023-03-16T14:02:59.175Z,1.30
2023-03-16T14:05:33.625Z,1.83
2023-03-16T14:08:02.437Z,1.40
2023-03-16T14:10:34.430Z,1.35
2023-03-16T14:13:27.663Z,1.70
2023-03-16T14:15:59.143Z,1.50
2023-03-16T14:18:37.316Z,1.77
2023-03-16T14:21:09.930Z,2.17
2023-03-16T14:23:43.642Z,2.20
2023-03-16T14:26:14.446Z,2.00
2023-03-16T14:28:58.491Z,1.83
2023-03-16T14:31:35.865Z,1.30
2023-03-16T14:34:20.118Z,1.73
2023-03-16T14:36:48.642Z,2.33
2023-03-16T14:39:21.114Z,1.63
2023-03-16T14:41:51.416Z,2.43
2023-03-16T14:44:26.674Z,2.00
2023-03-16T14:46:57.470Z,2.17
2023-03-16T14:49:31.192Z,2.05
2023-03-16T14:52:32.744Z,2.05
2023-03-16T14:55:03.670Z,2.17
2023-03-16T14:57:32.358Z,4.90
2023-03-16T15:00:00.551Z,2.20
2023-03-16T15:02:31.281Z,2.70
2023-03-16T15:05:00.429Z,1.98
2023-03-16T15:07:38.164Z,1.85
2023-03-16T15:10:10.430Z,1.80
2023-03-16T15:12:38.610Z,2.45
2023-03-16T15:15:16.293Z,1.73
2023-03-16T15:17:48.964Z,2.28
2023-03-16T15:20:24.340Z,1.90
2023-03-16T15:22:53.516Z,1.83
2023-03-16T15:25:42.684Z,1.98
2023-03-16T15:28:11.745Z,2.00
2023-03-16T15:30:40.954Z,2.10
2023-03-16T15:33:10.901Z,2.25
2023-03-16T15:35:41.174Z,3.08
2023-03-16T15:38:16.770Z,1.83
2023-03-16T15:40:48.044Z,1.63
2023-03-16T15:43:18.716Z,1.65
2023-03-16T15:45:47.416Z,1.80
2023-03-16T15:48:16.385Z,1.67
2023-03-16T15:50:51.189Z,2.70
2023-03-16T15:53:31.392Z,2.10
2023-03-16T15:56:04.953Z,2.20
2023-03-16T15:58:35.143Z,2.15
2023-03-16T16:01:07.430Z,2.10
2023-03-16T16:03:35.840Z,2.25
2023-03-16T16:06:03.877Z,2.30
2023-03-16T16:08:32.274Z,2.60
2023-03-16T16:13:56.749Z,1.98
2023-03-16T16:16:27.470Z,2.33
2023-03-16T16:18:55.704Z,2.85
2023-03-16T16:21:26.795Z,1.95
2023-03-16T16:23:55.034Z,3.05
2023-03-16T16:26:37.641Z,2.63
2023-03-16T16:29:19.050Z,2.17
2023-03-16T16:31:47.869Z,2.65
2023-03-16T16:34:18.201Z,3.13
2023-03-16T16:36:46.083Z,3.50
2023-03-16T16:39:14.252Z,2.28
2023-03-16T16:41:43.602Z,2.38
2023-03-16T16:44:24.806Z,2.88
2023-03-16T16:46:55.038Z,2.55
2023-03-16T16:49:25.983Z,2.70
2023-03-16T16:51:54.283Z,2.17
2023-03-16T16:54:24.947Z,3.03
2023-03-16T16:56:55.638Z,3.35
2023-03-16T16:59:27.415Z,3.22
2023-03-16T17:01:56.741Z,3.22
2023-03-16T17:04:28.154Z,3.30
2023-03-16T17:07:02.140Z,3.20
2023-03-16T17:09:30.789Z,3.10
2023-03-16T17:12:01.887Z,2.60
2023-03-16T17:14:31.597Z,3.20
2023-03-16T17:17:03.100Z,2.88
2023-03-16T17:19:30.821Z,3.22
2023-03-16T17:21:58.507Z,2.75
2023-03-16T17:24:27.573Z,3.22
2023-03-16T17:26:59.950Z,2.85
2023-03-16T17:29:34.288Z,3.25
2023-03-16T17:32:08.221Z,3.42
2023-03-16T17:37:05.358Z,3.53
2023-03-16T17:39:34.536Z,3.13
2023-03-16T17:42:06.242Z,3.45
2023-03-16T17:44:38.131Z,4.10
2023-03-16T17:47:18.497Z,3.83
2023-03-16T17:49:49.037Z,4.00
2023-03-16T17:52:26.382Z,3.67
2023-03-16T17:54:55.106Z,3.55
2023-03-16T17:57:31.682Z,4.55
2023-03-16T18:00:02.211Z,3.47
2023-03-16T18:02:44.850Z,3.70
2023-03-16T18:05:22.520Z,3.70
2023-03-16T18:07:54.717Z,4.65
2023-03-16T18:13:09.467Z,3.05
2023-03-16T18:15:39.949Z,3.42
2023-03-16T18:18:09.389Z,4.20
2023-03-16T18:20:37.694Z,3.83
2023-03-16T18:23:16.954Z,4.40
2023-03-16T18:25:46.710Z,4.63
2023-03-16T18:28:15.873Z,4.75
2023-03-16T18:30:52.043Z,4.28
2023-03-16T18:33:28.796Z,3.92
2023-03-16T18:36:03.348Z,4.47
2023-03-16T18:38:36.813Z,4.95
2023-03-16T18:41:26.730Z,4.10
2023-03-16T18:43:59.744Z,3.00
2023-03-16T18:46:37.278Z,3.20
2023-03-16T18:49:15.576Z,3.28
2023-03-16T18:51:47.097Z,3.90
2023-03-16T18:54:35.131Z,3.10
2023-03-16T18:57:04.422Z,3.97
2023-03-16T18:59:32.670Z,3.30
2023-03-16T19:02:01.371Z,5.32
2023-03-16T19:04:32.882Z,5.03
2023-03-16T19:07:01.023Z,3.63
2023-03-16T19:09:32.546Z,4.40
2023-03-16T19:12:03.166Z,5.47
2023-03-16T19:14:34.986Z,5.53
2023-03-16T19:17:02.859Z,5.55
2023-03-16T19:19:31.605Z,6.65
2023-03-16T19:22:06.691Z,6.55
2023-03-16T19:24:41.632Z,5.10
2023-03-16T19:27:24.153Z,5.50
2023-03-16T19:29:54.475Z,5.70
2023-03-16T19:32:23.180Z,5.53
2023-03-16T19:34:51.352Z,4.30
2023-03-16T19:37:20.007Z,3.97
2023-03-16T19:39:48.156Z,4.53
2023-03-16T19:42:37.092Z,4.93
2023-03-16T19:45:05.789Z,4.55
2023-03-16T19:47:35.934Z,4.35
2023-03-16T19:50:13.291Z,4.25
2023-03-16T19:52:41.124Z,6.15
2023-03-16T19:55:09.674Z,4.80
2023-03-16T19:57:38.574Z,4.68
2023-03-16T20:00:09.060Z,4.95
2023-03-16T20:02:42.698Z,5.50
2023-03-16T20:05:18.175Z,5.65
2023-03-16T20:07:47.223Z,4.50
2023-03-16T20:10:29.588Z,4.22
2023-03-16T20:12:59.407Z,4.25
2023-03-16T20:15:34.261Z,5.07
2023-03-16T20:18:03.096Z,5.78
2023-03-16T20:20:35.966Z,6.60
2023-03-16T20:23:18.671Z,6.33
2023-03-16T20:25:47.778Z,7.82
2023-03-16T20:28:36.357Z,12.90
2023-03-16T20:31:08.336Z,8.93
2023-03-16T20:33:36.307Z,12.55
2023-03-16T20:36:04.592Z,22.25
2023-03-16T20:38:32.709Z,18.20
2023-03-16T20:41:01.701Z,22.35
2023-03-16T20:43:32.103Z,16.80
2023-03-16T20:46:02.433Z,23.00
2023-03-16T20:48:30.771Z,16.83
2023-03-16T20:51:00.130Z,8.45
2023-03-16T20:53:28.368Z,6.93
2023-03-16T20:55:56.917Z,6.45
2023-03-16T20:58:28.025Z,5.93
2023-03-16T21:01:02.050Z,6.60
2023-03-16T21:03:31.052Z,9.23
2023-03-16T21:06:00.213Z,7.25
2023-03-16T21:08:28.501Z,6.53
2023-03-16T21:10:57.511Z,5.82
2023-03-16T21:13:33.127Z,4.93
2023-03-16T21:16:03.417Z,6.63
2023-03-16T21:18:31.781Z,7.05
2023-03-16T21:20:59.400Z,7.95
2023-03-16T21:23:27.913Z,5.97
2023-03-16T21:25:59.631Z,6.88
2023-03-16T21:28:30.088Z,5.35
2023-03-16T21:30:58.758Z,7.50
2023-03-16T21:33:32.942Z,6.70
2023-03-16T21:36:03.802Z,6.65
2023-03-16T21:38:32.960Z,6.57
2023-03-16T21:41:01.508Z,7.13
2023-03-16T21:43:31.280Z,7.10
2023-03-16T21:45:59.963Z,6.72
2023-03-16T21:48:37.712Z,6.22
2023-03-16T21:51:17.859Z,6.53
2023-03-16T21:53:49.361Z,5.65
2023-03-16T21:56:22.987Z,6.32
2023-03-16T21:58:52.176Z,7.43
2023-03-16T22:01:26.759Z,5.90
2023-03-16T22:04:16.586Z,5.70
2023-03-16T22:06:46.088Z,6.07
2023-03-16T22:09:19.517Z,5.88
2023-03-16T22:11:47.969Z,5.15
2023-03-16T22:14:15.797Z,5.85
2023-03-16T22:16:44.070Z,5.90
2023-03-16T22:19:14.653Z,5.80
2023-03-16T22:21:44.610Z,6.75
2023-03-16T22:24:22.361Z,6.18
2023-03-16T22:26:51.581Z,6.95
2023-03-16T22:29:23.646Z,5.63
2023-03-16T22:31:55.406Z,6.00
2023-03-16T22:34:34.487Z,6.32
2023-03-16T22:37:02.897Z,5.95
2023-03-16T22:39:37.003Z,6.25
2023-03-16T22:42:27.628Z,7.40
2023-03-16T22:44:55.671Z,5.07
2023-03-16T22:47:26.772Z,5.55
2023-03-16T22:49:55.141Z,6.18
2023-03-16T22:52:28.949Z,5.88
2023-03-16T22:55:01.462Z,5.35
2023-03-16T22:57:31.345Z,5.40
2023-03-16T23:00:00.731Z,5.10
2023-03-16T23:02:29.201Z,5.93
2023-03-16T23:04:56.883Z,6.13
2023-03-16T23:07:24.522Z,5.65
2023-03-16T23:09:52.471Z,5.20
2023-03-16T23:12:21.783Z,5.28
2023-03-16T23:14:49.989Z,5.15
2023-03-16T23:17:20.445Z,5.63
2023-03-16T23:19:49.326Z,5.22
2023-03-16T23:22:17.763Z,5.45
2023-03-16T23:24:45.931Z,5.32
2023-03-16T23:27:22.176Z,5.57
2023-03-16T23:29:49.869Z,4.57
2023-03-16T23:32:18.174Z,5.20
2023-03-16T23:34:46.073Z,4.68
2023-03-16T23:37:14.553Z,5.88
2023-03-16T23:39:42.409Z,4.80
2023-03-16T23:42:10.168Z,5.85
2023-03-16T23:44:38.224Z,6.05
2023-03-16T23:47:07.135Z,6.07
2023-03-16T23:49:41.211Z,6.22
2023-03-16T23:52:12.306Z,5.38
2023-03-16T23:54:40.877Z,5.63
2023-03-16T23:57:10.193Z,5.75
2023-03-16T23:59:38.350Z,6.30
